createdAt,value
2022-12-17T00:00:00.000Z,50.45
2022-12-17T00:15:00.000Z,51.53
2022-12-17T00:30:00.000Z,53.55
2022-12-17T00:45:00.000Z,54.77
2022-12-17T01:00:00.000Z,55.34
2022-12-17T01:15:00.000Z,53.6
2022-12-17T01:30:00.000Z,51.06
2022-12-17T01:45:00.000Z,48.09
2022-12-17T02:00:00.000Z,51.68
2022-12-17T02:15:00.000Z,54.09
2022-12-17T02:30:00.000Z,56.44
2022-12-17T02:45:00.000Z,58.44
2022-12-17T03:15:00.000Z,67.25
2022-12-17T03:30:00.000Z,67
2022-12-17T03:30:00.000Z,72.09
2022-12-17T03:45:00.000Z,74.6
2022-12-17T04:00:00.000Z,74.61
2022-12-17T04:15:00.000Z,75.44
2022-12-17T04:30:00.000Z,76.26
2022-12-17T04:45:00.000Z,76.18
2022-12-17T05:00:00.000Z,76.2
2022-12-17T05:15:00.000Z,79.52
2022-12-17T05:30:00.000Z,80
2022-12-17T05:45:00.000Z,78.49
2022-12-17T06:00:00.000Z,76.24
2022-12-17T06:15:00.000Z,72.38
2022-12-17T06:30:00.000Z,70.87
2022-12-17T06:45:00.000Z,69.18
2022-12-17T07:00:00.000Z,66.71
2022-12-17T07:15:00.000Z,60.66
2022-12-17T07:30:00.000Z,63.19
2022-12-17T07:45:00.000Z,57.78
2022-12-17T08:00:00.000Z,60.24
2022-12-17T08:15:00.000Z,59.92
2022-12-17T08:30:00.000Z,59.94
2022-12-17T08:45:00.000Z,59.54
2022-12-17T09:00:00.000Z,57.34
2022-12-17T09:15:00.000Z,59.6
2022-12-17T09:30:00.000Z,64.99
2022-12-17T09:45:00.000Z,64.94
2022-12-17T10:00:00.000Z,65.36
2022-12-17T10:15:00.000Z,61.86
2022-12-17T10:30:00.000Z,67.22
2022-12-17T10:45:00.000Z,91.04
2022-12-17T11:00:00.000Z,86.04
2022-12-17T11:15:00.000Z,79.91
2022-12-17T11:30:00.000Z,92.39
2022-12-17T11:45:00.000Z,80.42
2022-12-17T12:00:00.000Z,85.02
2022-12-17T12:15:00.000Z,83.53
2022-12-17T12:30:00.000Z,74.75
2022-12-17T12:45:00.000Z,64.96
2022-12-17T13:00:00.000Z,74.84
2022-12-17T13:15:00.000Z,69.38
2022-12-17T13:30:00.000Z,68.13
2022-12-17T13:45:00.000Z,70.99
2022-12-17T14:00:00.000Z,72.34
2022-12-17T14:15:00.000Z,78.02
2022-12-17T14:30:00.000Z,81.08
2022-12-17T14:45:00.000Z,83.4
2022-12-17T15:00:00.000Z,86.19
2022-12-17T15:15:00.000Z,97.74
2022-12-17T15:30:00.000Z,104.13
2022-12-17T15:45:00.000Z,99.24
2022-12-17T16:00:00.000Z,98.18
2022-12-17T16:15:00.000Z,100.98
2022-12-17T16:30:00.000Z,109.36
2022-12-17T16:45:00.000Z,102.09
2022-12-17T17:00:00.000Z,103.69
2022-12-17T17:15:00.000Z,101.6
2022-12-17T17:30:00.000Z,114.34
2022-12-17T17:45:00.000Z,101.86
2022-12-17T18:00:00.000Z,96.12
2022-12-17T18:15:00.000Z,93.46
2022-12-17T18:30:00.000Z,98.41
2022-12-17T18:45:00.000Z,91.47
2022-12-17T19:00:00.000Z,97.55
2022-12-17T19:15:00.000Z,98.06
2022-12-17T19:30:00.000Z,99.15
2022-12-17T19:45:00.000Z,105.04
2022-12-17T20:00:00.000Z,107.42
2022-12-17T20:15:00.000Z,99.93
2022-12-17T20:30:00.000Z,98.89
2022-12-17T20:45:00.000Z,97.61
2022-12-17T21:00:00.000Z,98.85
2022-12-17T21:15:00.000Z,89.09
2022-12-17T21:30:00.000Z,80.91
2022-12-17T21:45:00.000Z,84.21
2022-12-17T22:00:00.000Z,85.98
2022-12-17T22:15:00.000Z,90.69
2022-12-17T22:30:00.000Z,90.54
2022-12-17T22:45:00.000Z,90.98
2022-12-17T23:00:00.000Z,89.49
2022-12-17T23:15:00.000Z,89.58
2022-12-17T23:30:00.000Z,84.82
2022-12-17T23:45:00.000Z,90.62
